Time;durP1;ratioP1;P1;durP2;ratioP2;P2;SDS_P1;SDS_P2;PMS_P1;PMS_P2;Temp;Humidity;BMP_temperature;BMP_pressure;BME280_temperature;BME280_humidity;BME280_pressure;Samples;Min_cycle;Max_cycle;Signal;HPM_P1;HPM_P2
2021/04/17 00:01:20;;;;;;;10.77;8.00;;;3.30;49.20;;;;;;5031280;28;38246;-78
2021/04/17 00:04:08;;;;;;;10.67;8.10;;;3.20;49.20;;;;;;5027055;28;40067;-78
2021/04/17 00:06:45;;;;;;;9.30;7.73;;;3.20;49.40;;;;;;5012186;28;37582;-79
2021/04/17 00:09:14;;;;;;;9.70;8.23;;;3.10;49.40;;;;;;5015093;28;36711;-78
2021/04/17 00:12:01;;;;;;;10.00;8.40;;;3.10;49.60;;;;;;5030813;28;40561;-78
2021/04/17 00:14:33;;;;;;;10.30;8.33;;;3.00;49.60;;;;;;4963246;28;39655;-78
2021/04/17 00:17:25;;;;;;;10.40;8.23;;;2.90;49.80;;;;;;5028863;28;38633;-78
2021/04/17 00:19:54;;;;;;;10.13;8.33;;;2.80;49.90;;;;;;5020622;28;37861;-78
2021/04/17 00:23:07;;;;;;;10.53;8.90;;;2.70;50.00;;;;;;5018393;28;39381;-78
2021/04/17 00:25:40;;;;;;;11.50;9.50;;;2.60;50.20;;;;;;4990874;28;38305;-78
2021/04/17 00:28:20;;;;;;;10.37;8.67;;;2.50;50.60;;;;;;5029844;28;38332;-78
2021/04/17 00:34:12;;;;;;;12.37;7.67;;;2.30;50.80;;;;;;4951569;28;40154;-78
2021/04/17 00:36:42;;;;;;;11.37;9.13;;;2.30;51.00;;;;;;4996395;28;39110;-78
2021/04/17 00:39:22;;;;;;;12.60;9.20;;;2.30;51.30;;;;;;5003930;28;36529;-79
2021/04/17 00:42:10;;;;;;;13.30;9.43;;;2.20;51.40;;;;;;4983218;28;37294;-79
2021/04/17 00:44:44;;;;;;;11.40;8.97;;;2.20;51.50;;;;;;4946259;28;38579;-79
2021/04/17 00:47:15;;;;;;;11.70;9.20;;;2.20;51.60;;;;;;4977197;28;38601;-78
2021/04/17 00:49:45;;;;;;;13.67;9.30;;;2.10;51.70;;;;;;4944895;28;37453;-78
2021/04/17 00:52:19;;;;;;;11.40;8.83;;;2.10;51.80;;;;;;4956846;28;37068;-78
2021/04/17 00:54:46;;;;;;;10.00;8.57;;;2.10;51.90;;;;;;4970521;28;38013;-78
2021/04/17 00:57:15;;;;;;;10.40;8.23;;;2.00;51.90;;;;;;4920020;28;37583;-78
2021/04/17 01:00:10;;;;;;;9.70;8.33;;;2.00;52.10;;;;;;4953739;28;36765;-79
2021/04/17 01:03:44;;;;;;;11.03;8.43;;;2.00;52.30;;;;;;4958080;28;35860;-78
2021/04/17 01:06:30;;;;;;;11.93;9.20;;;1.90;52.40;;;;;;4945961;28;39480;-78
2021/04/17 01:09:51;;;;;;;11.43;8.73;;;1.90;52.50;;;;;;4974312;28;37922;-79
2021/04/17 01:15:51;;;;;;;9.80;7.97;;;2.00;52.90;;;;;;5003484;28;37116;-78
2021/04/17 01:18:49;;;;;;;9.93;8.23;;;2.00;52.90;;;;;;5006116;28;39727;-79
2021/04/17 01:21:28;;;;;;;11.33;8.30;;;2.00;52.60;;;;;;5002191;28;38763;-80
2021/04/17 01:24:18;;;;;;;9.90;8.07;;;2.00;52.40;;;;;;4988074;28;37175;-80
2021/04/17 01:26:46;;;;;;;10.50;7.93;;;2.10;52.60;;;;;;4987141;28;37223;-79
2021/04/17 01:32:43;;;;;;;9.50;7.80;;;2.10;52.20;;;;;;4931471;28;39376;-78
2021/04/17 01:35:30;;;;;;;9.17;8.07;;;2.20;52.00;;;;;;4926566;28;37807;-79
2021/04/17 01:38:18;;;;;;;;;;;;;;;;;;;;;
2021/04/17 01:41:15;;;;;;;9.63;7.93;;;2.10;51.90;;;;;;4915305;28;39648;-79
2021/04/17 01:44:19;;;;;;;11.03;8.07;;;2.10;51.90;;;;;;4954741;28;39639;-80
2021/04/17 01:46:49;;;;;;;10.17;8.23;;;2.10;51.90;;;;;;4962604;28;37601;-78
2021/04/17 01:49:21;;;;;;;9.60;8.20;;;2.20;52.00;;;;;;4940479;28;35851;-79
2021/04/17 01:51:49;;;;;;;9.50;7.70;;;2.20;51.60;;;;;;4939667;28;38848;-79
2021/04/17 01:54:20;;;;;;;10.23;8.20;;;2.20;51.50;;;;;;4949644;28;38841;-79
2021/04/17 01:56:49;;;;;;;9.13;8.23;;;2.30;51.60;;;;;;4925457;28;36926;-79
2021/04/17 01:59:20;;;;;;;10.37;8.10;;;2.30;51.50;;;;;;4946720;28;37359;-79
2021/04/17 02:01:47;;;;;;;9.57;7.73;;;2.30;51.30;;;;;;4946679;28;39779;-77
2021/04/17 02:04:15;;;;;;;10.17;7.90;;;2.30;51.50;;;;;;4951122;28;39460;-80
2021/04/17 02:06:42;;;;;;;9.90;8.13;;;2.30;51.10;;;;;;4964607;28;37792;-79
2021/04/17 02:09:09;;;;;;;9.00;7.87;;;2.30;51.30;;;;;;4995538;28;37828;-80
2021/04/17 02:11:36;;;;;;;14.33;8.13;;;2.30;51.50;;;;;;5010948;28;38774;-79
2021/04/17 02:14:04;;;;;;;11.03;8.07;;;2.40;51.30;;;;;;5020251;28;44475;-80
2021/04/17 02:16:37;;;;;;;9.73;8.20;;;2.40;51.20;;;;;;5036423;28;37827;-80
2021/04/17 02:19:17;;;;;;;9.50;8.13;;;2.50;51.30;;;;;;5026815;28;37853;-77
2021/04/17 02:21:46;;;;;;;9.70;8.50;;;2.50;51.30;;;;;;5025713;28;38497;-77
2021/04/17 02:24:13;;;;;;;9.73;8.10;;;2.50;51.10;;;;;;5029450;28;37919;-77
2021/04/17 02:26:41;;;;;;;11.27;8.43;;;2.50;51.10;;;;;;5033771;28;37814;-77
2021/04/17 02:29:08;;;;;;;9.50;7.80;;;2.50;51.10;;;;;;5029476;28;37030;-79
2021/04/17 02:31:37;;;;;;;11.63;7.60;;;2.50;51.10;;;;;;5039340;28;41461;-77
2021/04/17 02:34:05;;;;;;;9.10;6.87;;;2.50;51.10;;;;;;5020134;28;37812;-77
2021/04/17 02:36:32;;;;;;;8.20;7.13;;;2.50;51.00;;;;;;5037502;28;37694;-77
2021/04/17 02:38:59;;;;;;;8.93;7.90;;;2.50;51.10;;;;;;5015638;28;36841;-77
2021/04/17 02:41:26;;;;;;;10.47;8.13;;;2.50;51.00;;;;;;5027942;28;40840;-77
2021/04/17 02:43:55;;;;;;;9.50;7.30;;;2.60;50.80;;;;;;5033543;28;39790;-77
2021/04/17 02:46:22;;;;;;;10.73;8.37;;;2.70;50.90;;;;;;5033344;28;38610;-77
2021/04/17 02:48:50;;;;;;;10.83;8.80;;;2.60;50.40;;;;;;5033639;28;37037;-77
2021/04/17 02:51:17;;;;;;;8.07;6.93;;;2.50;50.70;;;;;;5043220;28;39923;-77
2021/04/17 02:53:48;;;;;;;8.97;7.73;;;2.50;50.60;;;;;;5024001;28;39878;-77
2021/04/17 02:56:15;;;;;;;12.50;9.47;;;2.50;50.70;;;;;;5029018;28;37998;-77
2021/04/17 02:58:42;;;;;;;13.90;9.07;;;2.60;50.40;;;;;;5032469;28;37434;-77
2021/04/17 03:01:12;;;;;;;10.33;8.37;;;2.70;50.50;;;;;;5028228;28;40190;-77
2021/04/17 03:03:39;;;;;;;9.90;8.00;;;2.70;50.30;;;;;;5035237;28;39994;-77
2021/04/17 03:06:07;;;;;;;11.73;9.03;;;2.80;49.90;;;;;;5033317;28;38304;-78
2021/04/17 03:08:37;;;;;;;10.37;8.60;;;2.80;49.90;;;;;;5029357;28;38124;-78
2021/04/17 03:11:04;;;;;;;11.13;8.87;;;2.70;49.70;;;;;;5015117;28;39592;-78
2021/04/17 03:13:31;;;;;;;12.93;8.97;;;2.80;49.80;;;;;;5028180;28;39837;-78
2021/04/17 03:15:58;;;;;;;10.97;8.07;;;2.70;49.80;;;;;;5017257;28;37577;-78
2021/04/17 03:18:25;;;;;;;10.97;8.40;;;2.70;49.90;;;;;;5022508;28;37181;-78
2021/04/17 03:20:52;;;;;;;10.77;8.60;;;2.70;49.90;;;;;;5028497;28;38957;-78
2021/04/17 03:23:20;;;;;;;11.10;8.63;;;2.70;49.80;;;;;;5033578;28;38827;-78
2021/04/17 03:25:47;;;;;;;10.07;8.30;;;2.70;49.90;;;;;;5012833;28;38178;-78
2021/04/17 03:28:14;;;;;;;10.60;8.33;;;2.60;49.80;;;;;;5014106;28;36094;-78
2021/04/17 03:30:42;;;;;;;11.80;8.63;;;2.60;49.90;;;;;;5035033;28;40309;-78
2021/04/17 03:33:09;;;;;;;11.07;8.53;;;2.60;50.10;;;;;;5017120;28;38017;-78
2021/04/17 03:35:39;;;;;;;10.23;8.47;;;2.50;50.10;;;;;;5019760;28;38422;-78
2021/04/17 03:38:06;;;;;;;11.13;8.60;;;2.50;50.00;;;;;;5032986;28;38084;-78
2021/04/17 03:40:34;;;;;;;13.50;9.27;;;2.50;50.20;;;;;;5040310;28;39517;-78
2021/04/17 03:43:01;;;;;;;11.33;8.97;;;2.40;50.30;;;;;;5050250;28;40575;-78
2021/04/17 03:45:29;;;;;;;11.10;8.90;;;2.40;50.30;;;;;;5075015;23;37708;-92
2021/04/17 03:47:56;;;;;;;11.57;9.53;;;2.30;50.60;;;;;;5048740;28;36296;-92
2021/04/17 03:50:23;;;;;;;11.03;8.87;;;2.20;50.90;;;;;;5032853;28;38725;-91
2021/04/17 03:52:50;;;;;;;12.00;8.70;;;2.20;51.10;;;;;;5027198;28;39066;-91
2021/04/17 03:55:18;;;;;;;10.73;8.60;;;2.10;51.80;;;;;;5016112;28;38110;-91
2021/04/17 03:57:47;;;;;;;13.57;10.37;;;2.10;51.30;;;;;;5029897;28;37909;-91
2021/04/17 04:00:18;;;;;;;12.43;9.20;;;2.10;51.40;;;;;;5031690;28;39504;-91
2021/04/17 04:02:45;;;;;;;13.87;9.50;;;2.00;51.60;;;;;;5016245;28;38239;-91
2021/04/17 04:05:13;;;;;;;13.93;9.80;;;2.00;51.70;;;;;;5014619;28;36882;-91
2021/04/17 04:07:40;;;;;;;13.33;10.00;;;2.00;51.90;;;;;;5016498;28;37120;-90
2021/04/17 04:10:09;;;;;;;12.20;9.60;;;1.90;51.80;;;;;;5014343;28;38576;-92
2021/04/17 04:12:36;;;;;;;12.43;10.00;;;1.90;52.20;;;;;;5006639;28;37929;-91
2021/04/17 04:15:05;;;;;;;13.77;9.90;;;2.00;52.30;;;;;;5015413;28;37871;-91
2021/04/17 04:17:33;;;;;;;13.00;9.97;;;2.00;52.30;;;;;;5014777;28;36303;-89
2021/04/17 04:20:00;;;;;;;12.20;9.43;;;2.00;52.40;;;;;;5016003;28;38326;-92
2021/04/17 04:22:27;;;;;;;14.60;10.10;;;2.10;52.50;;;;;;5053613;28;37571;-92
2021/04/17 04:24:54;;;;;;;11.60;9.10;;;2.10;52.60;;;;;;5053658;28;36965;-91
2021/04/17 04:27:21;;;;;;;11.87;9.57;;;2.10;52.50;;;;;;5064379;28;36033;-91
2021/04/17 04:29:49;;;;;;;15.43;10.30;;;2.20;52.50;;;;;;5079518;28;38626;-91
2021/04/17 04:32:17;;;;;;;11.57;9.30;;;2.20;52.20;;;;;;5010625;28;38567;-91
2021/04/17 04:34:44;;;;;;;11.63;8.80;;;2.30;53.00;;;;;;5013962;28;36755;-92
2021/04/17 04:37:11;;;;;;;12.37;8.93;;;2.30;52.10;;;;;;5003647;28;35860;-91
2021/04/17 04:39:38;;;;;;;11.80;8.90;;;2.50;52.10;;;;;;5012770;28;38829;-91
2021/04/17 04:42:06;;;;;;;12.03;9.00;;;2.60;52.00;;;;;;4996942;28;37911;-91
2021/04/17 04:44:33;;;;;;;11.00;8.90;;;2.60;52.10;;;;;;5021018;28;36784;-91
2021/04/17 04:47:01;;;;;;;13.60;9.77;;;2.70;52.00;;;;;;5033319;28;35982;-92
2021/04/17 04:49:29;;;;;;;12.20;8.30;;;2.80;52.00;;;;;;5031336;28;41350;-92
2021/04/17 04:51:56;;;;;;;12.13;8.40;;;2.90;51.80;;;;;;5032637;28;37904;-92
2021/04/17 04:54:23;;;;;;;11.67;8.30;;;3.00;51.40;;;;;;5016513;28;36780;-91
2021/04/17 04:56:50;;;;;;;10.90;8.87;;;3.10;51.20;;;;;;5017193;28;35798;-91
2021/04/17 04:59:17;;;;;;;14.13;8.80;;;3.10;51.00;;;;;;5032733;28;39240;-92
2021/04/17 05:01:44;;;;;;;10.60;9.00;;;3.10;50.80;;;;;;5043303;28;38989;-93
2021/04/17 05:04:11;;;;;;;12.10;9.50;;;3.20;50.60;;;;;;5084314;28;36812;-91
2021/04/17 05:06:39;;;;;;;12.37;9.73;;;3.20;50.30;;;;;;5092833;28;36145;-92
2021/04/17 05:09:07;;;;;;;11.00;8.63;;;3.30;50.40;;;;;;5075036;28;39601;-91
2021/04/17 05:11:34;;;;;;;12.20;9.20;;;3.40;50.40;;;;;;5073113;28;39155;-92
2021/04/17 05:14:01;;;;;;;12.07;8.60;;;3.40;50.20;;;;;;5100163;28;36790;-91
2021/04/17 05:16:28;;;;;;;11.57;8.77;;;3.50;49.80;;;;;;5099430;28;36100;-92
2021/04/17 05:18:55;;;;;;;12.17;9.50;;;3.60;49.80;;;;;;5088571;28;38423;-92
2021/04/17 05:21:22;;;;;;;10.23;7.87;;;3.70;50.10;;;;;;5091102;28;39097;-91
2021/04/17 05:23:50;;;;;;;11.03;8.33;;;3.80;49.70;;;;;;5093812;28;37093;-90
2021/04/17 05:26:17;;;;;;;10.00;8.30;;;3.90;49.30;;;;;;5095924;28;37455;-92
2021/04/17 05:28:45;;;;;;;12.10;8.90;;;4.10;49.40;;;;;;5094379;28;38199;-92
2021/04/17 05:31:12;;;;;;;13.50;8.70;;;4.10;48.80;;;;;;5077303;28;38812;-93
2021/04/17 05:33:39;;;;;;;14.37;9.07;;;4.20;48.60;;;;;;5073333;28;36821;-92
2021/04/17 05:36:07;;;;;;;13.03;9.73;;;4.30;48.20;;;;;;5087944;28;36302;-91
2021/04/17 05:38:39;;;;;;;11.07;9.27;;;4.50;48.00;;;;;;5102653;28;38733;-92
2021/04/17 05:41:10;;;;;;;12.53;9.67;;;4.50;47.90;;;;;;5102688;28;38730;-92
2021/04/17 05:43:37;;;;;;;10.63;8.67;;;4.60;47.80;;;;;;5087948;28;37734;-92
2021/04/17 05:46:04;;;;;;;12.17;9.00;;;4.70;47.70;;;;;;5081649;28;37914;-92
2021/04/17 05:48:31;;;;;;;10.83;8.90;;;4.90;47.60;;;;;;5089307;28;39866;-92
2021/04/17 05:50:58;;;;;;;11.77;9.30;;;5.00;47.10;;;;;;5088315;28;38684;-92
2021/04/17 05:53:26;;;;;;;12.87;9.13;;;5.10;46.80;;;;;;5075985;28;37026;-92
2021/04/17 05:55:53;;;;;;;12.77;9.60;;;5.20;46.30;;;;;;5085998;28;35509;-91
2021/04/17 05:58:22;;;;;;;13.17;8.60;;;5.30;46.50;;;;;;5091236;28;39696;-91
2021/04/17 06:00:49;;;;;;;12.33;9.40;;;5.40;46.20;;;;;;5076357;28;37894;-92
2021/04/17 06:03:16;;;;;;;10.53;8.33;;;5.60;45.90;;;;;;5072553;28;38170;-92
2021/04/17 06:05:43;;;;;;;13.80;9.70;;;5.70;45.50;;;;;;5086622;28;37049;-91
2021/04/17 06:08:11;;;;;;;12.50;9.00;;;5.90;45.20;;;;;;5088248;28;38898;-92
2021/04/17 06:10:38;;;;;;;14.17;9.83;;;6.10;44.90;;;;;;5074426;28;38641;-91
2021/04/17 06:13:05;;;;;;;11.67;9.03;;;6.10;44.70;;;;;;5064636;28;36720;-92
2021/04/17 06:15:33;;;;;;;12.37;10.47;;;6.20;44.50;;;;;;5094895;28;36626;-91
2021/04/17 06:18:00;;;;;;;11.60;10.17;;;6.30;44.50;;;;;;5074123;28;40977;-92
2021/04/17 06:20:28;;;;;;;12.07;9.47;;;6.40;44.20;;;;;;5065052;28;38209;-91
2021/04/17 06:22:55;;;;;;;12.83;9.03;;;6.50;44.10;;;;;;5070087;28;36631;-92
2021/04/17 06:25:29;;;;;;;15.00;9.87;;;6.70;43.40;;;;;;5087909;28;37137;-91
2021/04/17 06:27:56;;;;;;;13.60;9.73;;;6.90;43.50;;;;;;5073536;28;38647;-92
2021/04/17 06:30:23;;;;;;;11.87;9.80;;;7.10;43.20;;;;;;5069578;28;37779;-91
2021/04/17 06:32:52;;;;;;;12.97;9.30;;;7.20;42.60;;;;;;5073010;28;37777;-93
2021/04/17 06:35:19;;;;;;;13.03;10.60;;;7.40;42.10;;;;;;5076432;28;36594;-91
2021/04/17 06:37:46;;;;;;;12.80;9.60;;;7.60;41.70;;;;;;5072307;28;38569;-91
2021/04/17 06:40:14;;;;;;;12.60;10.27;;;8.00;41.80;;;;;;5072537;28;38928;-91
2021/04/17 06:42:44;;;;;;;10.17;9.10;;;8.30;40.80;;;;;;5068758;28;38360;-92
2021/04/17 06:45:13;;;;;;;11.83;9.07;;;8.70;40.10;;;;;;5064308;28;37032;-91
2021/04/17 06:47:41;;;;;;;10.90;9.30;;;9.10;39.20;;;;;;5067184;28;38382;-92
2021/04/17 06:50:11;;;;;;;13.70;9.87;;;9.40;38.20;;;;;;5070797;28;37474;-91
2021/04/17 06:52:39;;;;;;;12.63;9.90;;;9.60;37.90;;;;;;5065340;28;36795;-92
2021/04/17 06:55:10;;;;;;;12.17;9.60;;;10.00;36.40;;;;;;5086125;28;35742;-93
2021/04/17 06:57:43;;;;;;;9.70;8.70;;;10.50;36.20;;;;;;5086316;28;39296;-92
2021/04/17 07:00:13;;;;;;;13.97;10.33;;;11.10;34.90;;;;;;5080768;28;39127;-92
2021/04/17 07:02:42;;;;;;;13.97;10.43;;;11.70;33.80;;;;;;5087078;28;38630;-93
2021/04/17 07:05:11;;;;;;;12.40;8.73;;;12.40;33.30;;;;;;5071264;28;36121;-94
2021/04/17 07:07:38;;;;;;;10.83;9.40;;;13.20;32.60;;;;;;5086821;28;39382;-94
2021/04/17 07:10:07;;;;;;;11.23;10.13;;;14.60;31.60;;;;;;5091605;28;39280;-94
2021/04/17 07:12:34;;;;;;;10.23;9.23;;;16.10;28.90;;;;;;5068981;28;37174;-92
2021/04/17 07:15:06;;;;;;;12.43;11.17;;;17.70;27.30;;;;;;5089543;28;36341;-93
2021/04/17 07:17:34;;;;;;;11.20;10.10;;;18.80;26.20;;;;;;5085009;28;39430;-92
2021/04/17 07:20:03;;;;;;;11.10;10.00;;;19.40;25.50;;;;;;5084540;28;39527;-96
2021/04/17 07:22:35;;;;;;;11.20;10.00;;;19.60;24.10;;;;;;5072669;28;36799;-92
2021/04/17 07:25:17;;;;;;;11.50;10.50;;;19.60;24.10;;;;;;5089290;28;36723;-92
2021/04/17 07:27:45;;;;;;;11.40;10.30;;;19.10;24.30;;;;;;5076686;28;40098;-92
2021/04/17 07:30:29;;;;;;;13.53;10.87;;;18.50;24.70;;;;;;5080338;28;38004;-92
2021/04/17 07:33:06;;;;;;;16.53;11.33;;;18.00;25.00;;;;;;5085838;28;38566;-92
2021/04/17 07:35:37;;;;;;;13.13;11.50;;;17.70;25.40;;;;;;5089245;28;35939;-93
2021/04/17 07:38:14;;;;;;;12.30;11.10;;;18.00;25.50;;;;;;5091336;28;39693;-94
2021/04/17 07:40:42;;;;;;;12.20;11.03;;;18.50;24.60;;;;;;5075940;28;39029;-92
2021/04/17 07:43:10;;;;;;;11.93;10.73;;;19.20;24.40;;;;;;5078271;28;38507;-91
2021/04/17 07:45:39;;;;;;;11.40;10.30;;;20.20;23.80;;;;;;5070553;28;36118;-92
2021/04/17 07:48:28;;;;;;;12.43;11.13;;;21.80;23.00;;;;;;5081747;28;38734;-91
2021/04/17 07:50:56;;;;;;;11.90;10.90;;;23.60;21.20;;;;;;5069912;28;37940;-91
2021/04/17 07:53:31;;;;;;;12.57;11.37;;;24.70;20.20;;;;;;5093028;28;37657;-92
2021/04/17 07:56:20;;;;;;;11.83;10.73;;;25.60;19.50;;;;;;5072668;28;36158;-93
2021/04/17 07:58:48;;;;;;;12.53;11.20;;;26.30;18.50;;;;;;5094133;28;38936;-92
2021/04/17 08:01:16;;;;;;;13.33;12.23;;;26.70;18.30;;;;;;5091009;28;38287;-89
2021/04/17 08:03:46;;;;;;;11.43;10.40;;;27.00;17.60;;;;;;5095001;28;38234;-90
2021/04/17 08:06:13;;;;;;;13.60;12.30;;;27.20;17.60;;;;;;5077180;28;36332;-89
2021/04/17 08:08:42;;;;;;;12.30;11.10;;;27.70;17.10;;;;;;5076592;28;39447;-90
2021/04/17 08:11:12;;;;;;;11.77;10.77;;;28.30;16.90;;;;;;5095155;28;39300;-90
2021/04/17 08:13:40;;;;;;;11.60;10.47;;;29.20;16.30;;;;;;5089714;28;37614;-91
2021/04/17 08:16:09;;;;;;;11.37;10.27;;;30.30;15.50;;;;;;5083902;28;37393;-92
2021/04/17 08:18:37;;;;;;;11.83;10.90;;;31.30;15.00;;;;;;5088639;28;39953;-91
2021/04/17 08:21:05;;;;;;;11.20;10.23;;;31.50;14.00;;;;;;5075672;28;40332;-93
2021/04/17 08:23:35;;;;;;;12.27;11.10;;;31.40;13.80;;;;;;5081260;28;36989;-92
2021/04/17 08:26:05;;;;;;;12.43;11.43;;;31.10;14.00;;;;;;5083243;28;36159;-92
2021/04/17 08:28:41;;;;;;;11.97;10.97;;;31.70;13.90;;;;;;5107941;28;40945;-92
2021/04/17 08:31:24;;;;;;;12.00;10.83;;;32.40;13.10;;;;;;5100010;28;39021;-93
2021/04/17 08:34:13;;;;;;;11.20;10.40;;;32.10;13.10;;;;;;5098859;28;38344;-92
2021/04/17 08:36:44;;;;;;;11.90;10.80;;;31.90;13.10;;;;;;5093945;28;36318;-92
2021/04/17 08:39:42;;;;;;;11.77;10.60;;;31.90;13.00;;;;;;5093439;28;39393;-92
2021/04/17 08:42:16;;;;;;;10.53;9.60;;;31.30;12.90;;;;;;5068837;28;39243;-92
2021/04/17 08:44:44;;;;;;;10.70;9.60;;;30.20;13.30;;;;;;5092540;28;37356;-91
2021/04/17 08:47:14;;;;;;;11.13;9.97;;;29.40;14.00;;;;;;5091267;28;36231;-90
2021/04/17 08:49:43;;;;;;;10.77;9.80;;;28.20;14.60;;;;;;5075685;28;38871;-91
2021/04/17 08:52:22;;;;;;;9.80;8.90;;;27.40;15.10;;;;;;5099141;27;38036;-91
2021/04/17 08:55:16;;;;;;;11.67;10.60;;;27.30;15.40;;;;;;5092003;28;39047;-91
2021/04/17 08:57:48;;;;;;;11.43;10.43;;;27.30;14.80;;;;;;5094791;28;38637;-93
2021/04/17 09:00:21;;;;;;;12.73;10.93;;;27.50;14.70;;;;;;5077346;28;39583;-93
2021/04/17 09:02:50;;;;;;;10.70;9.70;;;27.90;14.90;;;;;;5080311;28;37489;-94
2021/04/17 09:05:19;;;;;;;11.10;10.03;;;28.00;14.40;;;;;;5076440;28;36743;-91
2021/04/17 09:07:48;;;;;;;10.80;9.70;;;28.90;14.20;;;;;;5076505;28;36183;-91
2021/04/17 09:10:39;;;;;;;11.10;8.97;;;29.40;13.50;;;;;;5073806;28;41142;-92
2021/04/17 09:13:33;;;;;;;9.07;8.20;;;28.50;13.70;;;;;;5091882;28;37898;-92
2021/04/17 09:16:03;;;;;;;8.80;8.00;;;27.20;14.10;;;;;;5095710;28;38464;-89
2021/04/17 09:18:48;;;;;;;7.50;6.80;;;25.40;15.00;;;;;;5079458;28;36887;-90
2021/04/17 09:21:35;;;;;;;7.97;6.30;;;22.90;15.60;;;;;;5097068;28;40066;-90
2021/04/17 09:24:04;;;;;;;8.37;6.60;;;20.20;17.20;;;;;;5102593;28;39629;-89
2021/04/17 09:26:40;;;;;;;7.33;6.23;;;18.30;19.30;;;;;;5084412;28;38333;-90
2021/04/17 09:29:23;;;;;;;10.07;6.07;;;17.10;20.00;;;;;;5073234;28;36224;-89
2021/04/17 09:31:51;;;;;;;7.57;6.77;;;16.40;21.00;;;;;;5073942;28;39803;-89
2021/04/17 09:34:20;;;;;;;10.60;6.57;;;16.10;22.10;;;;;;5074742;28;38918;-89
2021/04/17 09:36:50;;;;;;;9.13;6.80;;;15.60;22.20;;;;;;5091798;28;38137;-89
2021/04/17 09:39:28;;;;;;;9.63;6.50;;;15.40;22.90;;;;;;5100392;28;38081;-90
2021/04/17 09:41:58;;;;;;;6.60;5.80;;;15.70;22.20;;;;;;5073007;28;38076;-91
2021/04/17 09:44:26;;;;;;;6.27;5.33;;;15.80;22.20;;;;;;5081176;28;37937;-92
2021/04/17 09:47:08;;;;;;;6.20;5.60;;;16.20;21.50;;;;;;5073188;28;21002;-92
2021/04/17 09:49:37;;;;;;;6.40;5.80;;;16.70;20.60;;;;;;5073203;28;36231;-92
2021/04/17 09:52:05;;;;;;;5.63;5.07;;;17.40;20.40;;;;;;5070679;28;38688;-92
2021/04/17 09:54:40;;;;;;;8.63;5.27;;;18.60;19.80;;;;;;5088997;28;39989;-91
2021/04/17 09:57:09;;;;;;;7.63;5.83;;;19.70;18.60;;;;;;5069834;28;37675;-92
2021/04/17 09:59:50;;;;;;;6.30;5.63;;;20.20;17.60;;;;;;5072309;28;35726;-92
2021/04/17 10:02:18;;;;;;;6.17;5.10;;;20.40;17.80;;;;;;5083844;28;39038;-92
2021/04/17 10:04:49;;;;;;;7.20;4.90;;;20.00;18.00;;;;;;5074798;28;37801;-91
2021/04/17 10:07:17;;;;;;;6.30;5.70;;;19.70;17.90;;;;;;5076190;28;37848;-91
2021/04/17 10:09:58;;;;;;;6.93;5.37;;;19.30;18.30;;;;;;5085838;28;36855;-91
2021/04/17 10:12:26;;;;;;;7.07;5.13;;;19.40;18.60;;;;;;5083122;28;39879;-92
2021/04/17 10:15:14;;;;;;;8.83;5.30;;;19.60;17.70;;;;;;5075867;28;37270;-92
2021/04/17 10:17:41;;;;;;;5.73;5.10;;;20.60;18.00;;;;;;5073835;28;37042;-92
2021/04/17 10:20:10;;;;;;;6.60;5.40;;;21.00;17.20;;;;;;5073422;28;36335;-92
2021/04/17 10:22:38;;;;;;;6.17;4.57;;;21.20;17.00;;;;;;5075362;28;39801;-92
2021/04/17 10:25:09;;;;;;;6.63;5.93;;;21.70;16.70;;;;;;5072788;28;39232;-92
2021/04/17 10:27:36;;;;;;;6.83;5.47;;;21.40;16.60;;;;;;5072787;28;36479;-92
2021/04/17 10:30:17;;;;;;;6.20;5.60;;;20.80;16.40;;;;;;5097538;28;37827;-91
2021/04/17 10:32:44;;;;;;;5.20;4.70;;;20.40;16.60;;;;;;5075643;28;39838;-92
2021/04/17 10:35:15;;;;;;;5.17;4.57;;;20.40;16.60;;;;;;5073026;28;38980;-91
2021/04/17 10:37:46;;;;;;;4.73;4.33;;;20.90;16.70;;;;;;5068489;28;37023;-92
2021/04/17 10:40:16;;;;;;;5.60;4.50;;;22.00;16.00;;;;;;5078056;28;37229;-91
2021/04/17 10:42:47;;;;;;;4.30;3.90;;;22.70;15.20;;;;;;5077313;28;41313;-92
2021/04/17 10:45:16;;;;;;;5.00;4.50;;;22.80;14.60;;;;;;5090796;28;40095;-90
2021/04/17 10:47:43;;;;;;;4.83;4.33;;;22.00;15.30;;;;;;5077977;28;36869;-89
2021/04/17 10:50:19;;;;;;;5.23;4.30;;;21.90;15.90;;;;;;5077612;28;35922;-89
2021/04/17 10:53:00;;;;;;;4.80;4.30;;;21.90;15.70;;;;;;5073996;28;39420;-89
2021/04/17 10:55:39;;;;;;;5.67;4.37;;;21.20;15.70;;;;;;5067962;28;37832;-89
2021/04/17 10:58:18;;;;;;;5.10;4.30;;;19.90;16.30;;;;;;5070235;28;38079;-89
2021/04/17 11:00:52;;;;;;;5.30;4.80;;;19.20;17.10;;;;;;5066959;28;36192;-89
2021/04/17 11:03:19;;;;;;;5.07;4.13;;;18.70;18.40;;;;;;5076259;28;38239;-89
2021/04/17 11:05:47;;;;;;;5.70;5.10;;;18.30;18.80;;;;;;5086695;28;38149;-90
2021/04/17 11:08:23;;;;;;;4.73;4.23;;;18.40;18.30;;;;;;5083243;28;36965;-89
2021/04/17 11:10:52;;;;;;;4.60;4.10;;;18.20;18.00;;;;;;5064250;28;37113;-90
2021/04/17 11:13:31;;;;;;;7.20;5.10;;;18.00;18.10;;;;;;5087787;28;39810;-91
2021/04/17 11:16:00;;;;;;;5.80;4.10;;;18.30;18.30;;;;;;5084077;28;39075;-91
2021/04/17 11:18:33;;;;;;;4.57;4.17;;;18.60;17.60;;;;;;5076088;28;38110;-90
2021/04/17 11:21:03;;;;;;;4.70;3.77;;;18.60;17.80;;;;;;5090785;28;35718;-90
2021/04/17 11:23:35;;;;;;;5.17;4.17;;;19.00;17.00;;;;;;5101726;28;38175;-89
2021/04/17 11:26:05;;;;;;;6.10;4.30;;;18.80;16.80;;;;;;5107745;27;39981;-89
2021/04/17 11:28:35;;;;;;;6.77;5.33;;;19.10;17.50;;;;;;5111698;28;39203;-90
2021/04/17 11:31:03;;;;;;;4.63;4.23;;;19.10;17.20;;;;;;5099280;28;37348;-89
2021/04/17 11:33:32;;;;;;;4.40;3.83;;;18.60;17.20;;;;;;5096374;28;39190;-89
2021/04/17 11:35:59;;;;;;;8.90;4.50;;;17.70;17.50;;;;;;5101858;28;37942;-89
2021/04/17 11:38:28;;;;;;;7.57;4.50;;;17.30;18.10;;;;;;5087447;28;36746;-89
2021/04/17 11:40:56;;;;;;;5.03;4.50;;;17.00;18.80;;;;;;5083437;28;36937;-90
2021/04/17 11:43:23;;;;;;;6.37;4.60;;;17.00;19.30;;;;;;5085940;28;40782;-90
2021/04/17 11:45:50;;;;;;;7.23;4.30;;;17.00;19.60;;;;;;5072783;28;40680;-91
2021/04/17 11:48:19;;;;;;;7.43;5.47;;;16.90;19.80;;;;;;5063192;28;36768;-91
2021/04/17 11:50:47;;;;;;;5.20;4.70;;;16.80;20.10;;;;;;5072643;28;36182;-92
2021/04/17 11:53:16;;;;;;;5.03;4.30;;;16.60;19.60;;;;;;5079250;28;40546;-92
2021/04/17 11:55:43;;;;;;;6.70;4.47;;;16.70;20.10;;;;;;5080044;28;37939;-93
2021/04/17 11:58:11;;;;;;;7.80;4.80;;;17.00;19.90;;;;;;5077013;28;37252;-93
2021/04/17 12:00:38;;;;;;;5.37;4.87;;;17.20;19.30;;;;;;5078192;28;36380;-93
2021/04/17 12:03:07;;;;;;;4.53;4.13;;;17.00;19.70;;;;;;5101840;28;38989;-92
2021/04/17 12:05:35;;;;;;;8.50;4.57;;;17.20;19.50;;;;;;5088982;28;39456;-92
2021/04/17 12:08:02;;;;;;;4.70;4.10;;;17.50;19.70;;;;;;5065421;28;36711;-92
2021/04/17 12:10:33;;;;;;;4.73;4.33;;;17.90;18.70;;;;;;5098723;28;36769;-92
2021/04/17 12:13:00;;;;;;;5.33;3.80;;;18.20;18.30;;;;;;5098417;28;38417;-92
2021/04/17 12:15:29;;;;;;;5.47;4.97;;;18.30;18.30;;;;;;5083856;28;39470;-93
2021/04/17 12:17:56;;;;;;;5.10;4.60;;;18.30;18.30;;;;;;5102315;28;37597;-93
2021/04/17 12:20:24;;;;;;;6.87;5.00;;;17.90;18.40;;;;;;5112617;28;36753;-92
2021/04/17 12:22:54;;;;;;;10.80;5.20;;;17.30;18.60;;;;;;5098600;28;39454;-89
2021/04/17 12:25:22;;;;;;;5.27;4.20;;;16.60;19.10;;;;;;5112670;28;40245;-92
2021/04/17 12:27:50;;;;;;;13.70;4.93;;;15.90;19.50;;;;;;5092308;28;38007;-92
2021/04/17 12:30:19;;;;;;;5.43;4.40;;;15.30;20.40;;;;;;5082212;28;37287;-91
2021/04/17 12:32:47;;;;;;;4.20;3.80;;;14.80;20.60;;;;;;5080662;28;38120;-93
2021/04/17 12:35:17;;;;;;;4.70;4.07;;;14.40;21.10;;;;;;5099867;28;38631;-92
2021/04/17 12:37:48;;;;;;;7.33;4.47;;;14.40;22.00;;;;;;5108969;28;38032;-91
2021/04/17 12:40:22;;;;;;;4.50;3.73;;;14.30;21.50;;;;;;5096199;28;37851;-91
2021/04/17 12:42:49;;;;;;;3.93;3.30;;;14.50;21.30;;;;;;5080000;28;38507;-92
2021/04/17 12:45:17;;;;;;;6.23;4.23;;;14.70;22.00;;;;;;5067098;28;38019;-93
2021/04/17 12:47:46;;;;;;;4.70;3.50;;;15.00;20.70;;;;;;5051215;28;38610;-91
2021/04/17 12:50:14;;;;;;;4.83;3.60;;;14.70;20.40;;;;;;5083496;28;36946;-93
2021/04/17 12:52:42;;;;;;;6.33;4.23;;;14.70;20.90;;;;;;5098883;28;39157;-92
2021/04/17 12:55:10;;;;;;;4.60;3.93;;;14.70;21.10;;;;;;5077397;28;38893;-93
2021/04/17 12:57:39;;;;;;;5.80;4.20;;;14.70;21.10;;;;;;5069423;28;37314;-90
2021/04/17 13:00:09;;;;;;;6.70;4.17;;;14.80;21.40;;;;;;5078415;28;35780;-93
2021/04/17 13:02:37;;;;;;;5.60;3.67;;;14.90;21.10;;;;;;5079122;28;39338;-92
2021/04/17 13:05:05;;;;;;;6.10;3.33;;;15.00;20.50;;;;;;5096363;28;38211;-93
2021/04/17 13:07:33;;;;;;;3.40;3.10;;;14.80;20.80;;;;;;5093312;28;37173;-93
2021/04/17 13:10:02;;;;;;;4.70;3.10;;;14.90;21.10;;;;;;5077073;28;36383;-92
2021/04/17 13:12:31;;;;;;;5.23;3.77;;;15.00;20.90;;;;;;5073923;28;38517;-91
2021/04/17 13:15:01;;;;;;;4.37;3.97;;;15.00;20.90;;;;;;5093391;28;38243;-93
2021/04/17 13:17:28;;;;;;;4.30;3.63;;;14.80;21.30;;;;;;5079693;28;38692;-92